Time;durP1;ratioP1;P1;durP2;ratioP2;P2;SDS_P1;SDS_P2;PMS_P1;PMS_P2;Temp;Humidity;BMP_temperature;BMP_pressure;BME280_temperature;BME280_humidity;BME280_pressure;Samples;Min_cycle;Max_cycle;Signal;HPM_P1;HPM_P2
2021/09/29 00:01:07;;;;;;;4.57;0.90;;;16.20;76.40;;;;;;5040111;28;20025;-79
2021/09/29 00:03:33;;;;;;;3.72;0.70;;;16.20;76.50;;;;;;5054367;28;20067;-79
2021/09/29 00:05:58;;;;;;;5.82;0.80;;;16.30;76.40;;;;;;5056355;28;20021;-79
2021/09/29 00:08:24;;;;;;;3.55;0.65;;;16.30;76.60;;;;;;5054778;28;20052;-79
2021/09/29 00:10:50;;;;;;;5.53;1.08;;;16.30;76.30;;;;;;5056407;28;20033;-80
2021/09/29 00:13:19;;;;;;;5.82;0.80;;;16.30;76.20;;;;;;5054756;28;20059;-79
2021/09/29 00:15:45;;;;;;;5.07;0.90;;;16.30;76.50;;;;;;5056128;28;20043;-79
2021/09/29 00:18:13;;;;;;;3.33;1.02;;;16.20;76.80;;;;;;5054120;28;20033;-80
2021/09/29 00:20:39;;;;;;;2.50;0.82;;;16.30;76.80;;;;;;5036020;28;20033;-79
2021/09/29 00:23:04;;;;;;;2.40;0.60;;;16.30;76.60;;;;;;5036112;28;20106;-79
2021/09/29 00:25:30;;;;;;;4.20;1.13;;;16.20;77.20;;;;;;5064416;28;20025;-79
2021/09/29 00:27:56;;;;;;;5.97;0.70;;;16.20;77.00;;;;;;5054837;28;20684;-79
2021/09/29 00:30:21;;;;;;;5.60;0.90;;;16.20;77.20;;;;;;5056108;28;20040;-80
2021/09/29 00:32:48;;;;;;;2.63;0.88;;;16.20;77.00;;;;;;5055874;28;20112;-79
2021/09/29 00:35:19;;;;;;;6.07;1.00;;;16.10;77.30;;;;;;5043772;28;20084;-79
2021/09/29 00:37:45;;;;;;;4.53;0.82;;;16.10;77.50;;;;;;5035911;28;20095;-79
2021/09/29 00:40:11;;;;;;;7.85;1.42;;;16.20;77.40;;;;;;5037805;28;20025;-79
2021/09/29 00:42:37;;;;;;;3.90;0.90;;;16.10;77.70;;;;;;5055626;28;20395;-79
2021/09/29 00:45:04;;;;;;;8.82;1.38;;;16.10;77.80;;;;;;5055804;28;20025;-79
2021/09/29 00:47:32;;;;;;;6.30;0.90;;;16.10;77.50;;;;;;5055861;28;20025;-79
2021/09/29 00:49:58;;;;;;;6.57;0.93;;;16.10;77.60;;;;;;5050868;28;20104;-79
2021/09/29 00:52:24;;;;;;;4.82;1.15;;;16.00;78.10;;;;;;5035647;28;20042;-80
2021/09/29 00:54:50;;;;;;;7.32;1.40;;;15.90;78.30;;;;;;5035629;28;20053;-79
2021/09/29 00:57:16;;;;;;;6.25;1.20;;;15.90;78.40;;;;;;5035589;28;20455;-79
2021/09/29 00:59:41;;;;;;;4.47;1.40;;;15.80;78.60;;;;;;5035188;28;20028;-79
2021/09/29 01:02:07;;;;;;;6.13;1.70;;;15.80;78.90;;;;;;5035260;28;20036;-79
2021/09/29 01:04:33;;;;;;;3.72;1.17;;;15.80;78.90;;;;;;5035535;28;20026;-79
2021/09/29 01:07:03;;;;;;;5.93;1.15;;;15.80;78.80;;;;;;5034620;28;20033;-79
2021/09/29 01:09:32;;;;;;;7.90;1.00;;;15.80;79.00;;;;;;5035908;28;20032;-79
2021/09/29 01:12:01;;;;;;;3.05;1.08;;;15.80;79.10;;;;;;5039488;28;20040;-79
2021/09/29 01:14:31;;;;;;;4.47;1.13;;;15.80;78.90;;;;;;5035475;28;20036;-79
2021/09/29 01:16:59;;;;;;;4.53;0.98;;;15.80;78.70;;;;;;5035621;28;20033;-79
2021/09/29 01:20:02;;;;;;;1.88;0.50;;;15.90;78.50;;;;;;5035195;28;20057;-79
2021/09/29 01:22:40;;;;;;;6.05;1.30;;;15.80;79.10;;;;;;5041948;28;20029;-79
2021/09/29 01:25:08;;;;;;;8.25;1.52;;;15.80;79.20;;;;;;5060363;28;20040;-79
2021/09/29 01:27:35;;;;;;;8.60;1.60;;;15.80;79.20;;;;;;5055229;28;20032;-78
2021/09/29 01:30:02;;;;;;;5.00;0.90;;;15.80;79.40;;;;;;5055327;28;20021;-79
2021/09/29 01:32:29;;;;;;;10.65;1.85;;;15.80;79.60;;;;;;5037193;28;20105;-79
2021/09/29 01:34:55;;;;;;;5.80;1.08;;;15.80;80.00;;;;;;5033681;28;20045;-79
2021/09/29 01:37:21;;;;;;;6.30;1.20;;;15.80;79.60;;;;;;5035360;28;20516;-79
2021/09/29 01:39:47;;;;;;;7.97;1.25;;;16.00;79.30;;;;;;5035015;28;20049;-79
2021/09/29 01:42:13;;;;;;;8.73;2.08;;;16.00;79.40;;;;;;5035167;28;20033;-79
2021/09/29 01:44:39;;;;;;;6.75;1.23;;;16.00;79.60;;;;;;5035159;28;20018;-79
2021/09/29 01:47:05;;;;;;;11.57;1.63;;;16.10;79.10;;;;;;5048065;28;20068;-79
2021/09/29 01:49:36;;;;;;;5.35;1.33;;;16.10;79.00;;;;;;5048697;28;20089;-80
2021/09/29 01:52:05;;;;;;;4.00;1.15;;;16.20;79.00;;;;;;5035080;28;20033;-80
2021/09/29 01:54:52;;;;;;;4.40;0.90;;;16.20;78.70;;;;;;5034914;28;20071;-80
2021/09/29 01:57:18;;;;;;;4.43;1.10;;;16.10;78.80;;;;;;5035056;28;20044;-80
2021/09/29 01:59:44;;;;;;;6.93;1.20;;;16.10;78.60;;;;;;5034780;28;20057;-79
2021/09/29 02:02:12;;;;;;;5.22;0.90;;;16.10;78.70;;;;;;5034910;28;20029;-79
2021/09/29 02:04:49;;;;;;;4.53;0.80;;;16.00;78.50;;;;;;5034855;28;20017;-80
2021/09/29 02:07:16;;;;;;;6.03;1.60;;;16.00;78.60;;;;;;5034788;28;20233;-79
2021/09/29 02:09:42;;;;;;;2.80;0.75;;;16.00;78.20;;;;;;5034971;28;20064;-80
2021/09/29 02:12:12;;;;;;;3.85;1.00;;;15.90;78.20;;;;;;5035096;28;20021;-80
2021/09/29 02:14:37;;;;;;;2.77;0.83;;;15.90;78.20;;;;;;5038385;28;20083;-79
2021/09/29 02:17:03;;;;;;;1.75;0.77;;;15.80;77.80;;;;;;5038248;28;20021;-79
2021/09/29 02:19:29;;;;;;;1.63;0.70;;;15.80;78.00;;;;;;5037304;28;20090;-79
2021/09/29 02:21:55;;;;;;;5.05;0.85;;;15.70;78.00;;;;;;5057077;28;20461;-80
2021/09/29 02:24:21;;;;;;;6.32;0.80;;;15.80;77.90;;;;;;5066392;28;20029;-79
2021/09/29 02:26:47;;;;;;;3.67;0.70;;;15.80;77.80;;;;;;5078167;28;20017;-79
2021/09/29 02:29:16;;;;;;;3.13;0.70;;;15.80;77.60;;;;;;5071668;28;20028;-79
2021/09/29 02:31:42;;;;;;;1.38;0.60;;;15.70;77.50;;;;;;5058032;28;20032;-79
2021/09/29 02:34:08;;;;;;;1.98;0.70;;;15.70;77.60;;;;;;5057714;28;20391;-79
2021/09/29 02:36:34;;;;;;;1.55;0.60;;;15.60;77.50;;;;;;5055922;28;20025;-79
2021/09/29 02:39:00;;;;;;;2.08;0.68;;;15.60;77.50;;;;;;5037818;28;20559;-79
2021/09/29 02:41:27;;;;;;;1.83;0.85;;;15.60;77.60;;;;;;5037988;28;20071;-79
2021/09/29 02:43:53;;;;;;;0.80;0.50;;;15.60;77.40;;;;;;5036559;28;20048;-79
2021/09/29 02:46:21;;;;;;;1.95;0.50;;;15.50;77.70;;;;;;5037489;28;20026;-80
2021/09/29 02:48:47;;;;;;;3.22;0.65;;;15.60;77.50;;;;;;5037735;28;20026;-79
2021/09/29 02:51:13;;;;;;;3.15;0.50;;;15.50;77.40;;;;;;5037678;28;20026;-79
2021/09/29 02:53:38;;;;;;;4.40;0.70;;;15.50;77.30;;;;;;5037571;28;20033;-79
2021/09/29 02:56:04;;;;;;;4.00;0.80;;;15.50;77.20;;;;;;5036339;28;20029;-80
2021/09/29 02:58:30;;;;;;;1.27;0.60;;;15.50;77.30;;;;;;5037548;28;20032;-79
2021/09/29 03:00:59;;;;;;;3.28;0.70;;;15.40;77.50;;;;;;5051721;28;20051;-79
2021/09/29 03:03:25;;;;;;;5.68;0.90;;;15.40;77.30;;;;;;5037237;28;20609;-79
2021/09/29 03:05:51;;;;;;;1.98;0.70;;;15.40;77.40;;;;;;5037574;28;20383;-79
2021/09/29 03:08:17;;;;;;;2.13;0.55;;;15.30;77.40;;;;;;5037165;28;20343;-79
2021/09/29 03:10:43;;;;;;;1.17;0.68;;;15.30;77.30;;;;;;5037714;28;20577;-79
2021/09/29 03:13:10;;;;;;;2.63;0.70;;;15.30;77.30;;;;;;5037247;28;20029;-79
2021/09/29 03:15:36;;;;;;;1.38;0.60;;;15.30;77.40;;;;;;5037372;28;20029;-79
2021/09/29 03:18:02;;;;;;;1.50;0.68;;;15.20;77.30;;;;;;5035768;28;20031;-79
2021/09/29 03:20:31;;;;;;;2.15;0.63;;;15.10;77.50;;;;;;5037023;28;20017;-79
2021/09/29 03:22:57;;;;;;;0.77;0.43;;;15.10;77.30;;;;;;5036474;28;20021;-79
2021/09/29 03:25:24;;;;;;;1.20;0.70;;;15.00;77.10;;;;;;5070742;28;20835;-79
2021/09/29 03:27:50;;;;;;;1.40;0.50;;;14.90;77.60;;;;;;5077161;28;20032;-80
2021/09/29 03:30:17;;;;;;;2.35;0.40;;;14.90;77.10;;;;;;5069796;28;20025;-79
2021/09/29 03:32:43;;;;;;;2.70;0.88;;;14.90;77.30;;;;;;5036896;28;20030;-79
2021/09/29 03:35:10;;;;;;;1.25;0.60;;;14.90;77.30;;;;;;5036644;28;20057;-79
2021/09/29 03:37:36;;;;;;;4.20;0.60;;;14.80;77.40;;;;;;5036770;28;20087;-79
2021/09/29 03:40:04;;;;;;;0.85;0.50;;;14.80;77.40;;;;;;5052050;28;20783;-79
2021/09/29 03:42:29;;;;;;;1.13;0.55;;;14.70;77.60;;;;;;5036738;28;20032;-79
2021/09/29 03:44:55;;;;;;;2.60;0.80;;;14.70;77.40;;;;;;5045620;28;20391;-79
2021/09/29 03:47:21;;;;;;;0.85;0.47;;;14.60;77.50;;;;;;5056638;28;20094;-79
2021/09/29 03:49:46;;;;;;;1.88;0.82;;;14.50;77.70;;;;;;5056520;28;20024;-79
2021/09/29 03:52:12;;;;;;;1.70;0.52;;;14.50;77.80;;;;;;5053516;28;20518;-80
2021/09/29 03:54:40;;;;;;;1.30;0.68;;;14.50;77.90;;;;;;5036600;28;20037;-80
2021/09/29 03:57:06;;;;;;;1.48;0.60;;;14.50;78.00;;;;;;5036726;28;20056;-79
2021/09/29 03:59:31;;;;;;;3.28;0.60;;;14.50;78.00;;;;;;5036498;28;20021;-79
2021/09/29 04:01:57;;;;;;;1.42;0.73;;;14.40;78.00;;;;;;5035167;28;20021;-79
2021/09/29 04:04:23;;;;;;;1.98;0.60;;;14.40;77.90;;;;;;5036285;28;20044;-79
2021/09/29 04:06:49;;;;;;;1.55;0.85;;;14.30;78.00;;;;;;5036339;28;20083;-79
2021/09/29 04:09:14;;;;;;;1.50;0.57;;;14.30;77.90;;;;;;5050763;28;20107;-79
2021/09/29 04:11:43;;;;;;;1.55;0.45;;;14.30;77.80;;;;;;5056123;28;20025;-80
2021/09/29 04:14:09;;;;;;;2.58;0.60;;;14.30;77.80;;;;;;5039828;28;20048;-79
2021/09/29 04:16:35;;;;;;;2.13;0.60;;;14.30;77.80;;;;;;5035753;28;20025;-79
2021/09/29 04:19:01;;;;;;;2.10;0.60;;;14.20;77.70;;;;;;5050636;28;20021;-80
2021/09/29 04:21:27;;;;;;;3.90;0.80;;;14.30;77.70;;;;;;5036149;28;20518;-79
2021/09/29 04:23:53;;;;;;;3.70;0.90;;;14.20;77.60;;;;;;5044649;28;20412;-79
2021/09/29 04:26:19;;;;;;;0.93;0.50;;;14.10;77.70;;;;;;5074528;28;20024;-80
2021/09/29 04:28:45;;;;;;;1.88;0.70;;;14.10;77.60;;;;;;5050942;28;20029;-80
2021/09/29 04:31:10;;;;;;;1.73;0.95;;;14.00;77.80;;;;;;5035969;28;20029;-80
2021/09/29 04:33:36;;;;;;;2.35;0.60;;;14.00;77.90;;;;;;5034395;28;20029;-79
2021/09/29 04:36:03;;;;;;;2.40;0.60;;;14.00;77.80;;;;;;5035025;28;20129;-79
2021/09/29 04:38:28;;;;;;;1.15;0.75;;;13.90;77.60;;;;;;5035567;28;20038;-80
2021/09/29 04:40:54;;;;;;;1.08;0.50;;;13.80;77.70;;;;;;5034548;28;20021;-80
2021/09/29 04:43:20;;;;;;;1.33;0.70;;;13.80;77.90;;;;;;5035806;28;20475;-81
2021/09/29 04:45:49;;;;;;;2.55;1.00;;;13.80;77.70;;;;;;5035463;28;20048;-84
2021/09/29 04:48:15;;;;;;;2.83;0.77;;;13.80;78.00;;;;;;5035764;28;20037;-88
2021/09/29 04:50:41;;;;;;;1.40;0.60;;;13.80;77.60;;;;;;5035435;28;20064;-87
2021/09/29 04:53:07;;;;;;;0.40;0.40;;;13.80;77.70;;;;;;5036609;28;20057;-85
2021/09/29 04:55:33;;;;;;;1.05;0.63;;;13.80;77.60;;;;;;5055551;28;20380;-88
2021/09/29 04:58:02;;;;;;;2.28;0.73;;;13.80;77.60;;;;;;5039865;28;20496;-86
2021/09/29 05:00:29;;;;;;;1.77;0.87;;;13.80;77.40;;;;;;5034095;28;20387;-85
2021/09/29 05:02:55;;;;;;;3.42;0.60;;;13.80;77.40;;;;;;5045113;28;20395;-83
2021/09/29 05:05:20;;;;;;;4.25;0.90;;;13.80;77.50;;;;;;5055280;28;20048;-85
2021/09/29 05:07:50;;;;;;;2.10;1.05;;;13.80;77.50;;;;;;5055469;28;20060;-79
2021/09/29 05:10:50;;;;;;;1.38;0.88;;;13.70;77.40;;;;;;5055330;28;20035;-83
2021/09/29 05:13:30;;;;;;;0.73;0.55;;;13.70;77.50;;;;;;5036494;28;20033;-80
2021/09/29 05:15:57;;;;;;;1.77;0.70;;;13.70;77.40;;;;;;5034510;28;20033;-79
2021/09/29 05:18:22;;;;;;;3.10;0.82;;;13.70;77.50;;;;;;5035183;28;20029;-79
2021/09/29 05:20:48;;;;;;;2.10;0.80;;;13.70;77.50;;;;;;5034959;28;20026;-83
2021/09/29 05:23:14;;;;;;;1.77;0.77;;;13.70;77.30;;;;;;5035186;28;20218;-80
2021/09/29 05:25:42;;;;;;;1.67;0.68;;;13.70;77.50;;;;;;5049029;28;20044;-81
2021/09/29 05:28:12;;;;;;;1.80;0.82;;;13.60;77.50;;;;;;5039700;28;20570;-81
2021/09/29 05:30:38;;;;;;;2.00;0.70;;;13.60;77.60;;;;;;5034172;28;20040;-81
2021/09/29 05:33:04;;;;;;;1.65;0.60;;;13.60;77.70;;;;;;5035123;28;20021;-81
2021/09/29 05:35:30;;;;;;;3.35;0.80;;;13.60;77.60;;;;;;5031076;28;20482;-81
2021/09/29 05:37:56;;;;;;;2.22;1.23;;;13.60;77.50;;;;;;5045084;28;20027;-81
2021/09/29 05:40:21;;;;;;;2.25;0.75;;;13.60;77.40;;;;;;5044090;28;20399;-81
2021/09/29 05:42:47;;;;;;;2.10;0.70;;;13.60;77.50;;;;;;5042395;28;20025;-82
2021/09/29 05:45:13;;;;;;;5.75;1.00;;;13.60;77.50;;;;;;5044866;28;20061;-82
2021/09/29 05:47:39;;;;;;;2.67;1.20;;;13.60;77.70;;;;;;5045866;28;20100;-82
2021/09/29 05:50:06;;;;;;;1.17;0.80;;;13.50;77.70;;;;;;5046013;28;20041;-82
2021/09/29 05:52:31;;;;;;;2.58;0.82;;;13.50;77.70;;;;;;5047187;28;20074;-81
2021/09/29 05:54:57;;;;;;;1.48;0.90;;;13.50;77.70;;;;;;5048623;28;20104;-81
2021/09/29 05:57:23;;;;;;;2.55;0.90;;;13.40;77.70;;;;;;5047075;28;20777;-83
2021/09/29 05:59:50;;;;;;;2.40;0.80;;;13.50;77.70;;;;;;5046672;28;20024;-82
2021/09/29 06:02:16;;;;;;;1.20;0.80;;;13.40;77.80;;;;;;5046377;28;20032;-82
2021/09/29 06:04:42;;;;;;;2.60;0.77;;;13.50;77.70;;;;;;5043607;28;20052;-82
2021/09/29 06:07:10;;;;;;;2.38;0.93;;;13.40;77.60;;;;;;5047516;28;22226;-81
2021/09/29 06:09:39;;;;;;;4.50;1.15;;;13.40;77.80;;;;;;5052102;28;20029;-82
2021/09/29 06:12:06;;;;;;;1.48;0.98;;;13.40;77.70;;;;;;5041933;28;20017;-83
2021/09/29 06:14:32;;;;;;;2.72;1.25;;;13.40;77.70;;;;;;5041217;28;20495;-82
2021/09/29 06:17:00;;;;;;;1.33;0.95;;;13.40;77.80;;;;;;5043006;28;20033;-82
2021/09/29 06:19:26;;;;;;;2.55;1.23;;;13.30;77.90;;;;;;5039624;28;20033;-83
2021/09/29 06:21:52;;;;;;;5.07;1.30;;;13.30;77.90;;;;;;5037300;28;20447;-83
2021/09/29 06:24:18;;;;;;;3.00;1.00;;;13.40;77.80;;;;;;5053424;28;20036;-82
2021/09/29 06:26:44;;;;;;;2.15;0.90;;;13.40;77.80;;;;;;5078020;28;20021;-82
2021/09/29 06:29:09;;;;;;;2.65;1.08;;;13.40;77.70;;;;;;5077778;28;20474;-83
2021/09/29 06:31:35;;;;;;;4.15;1.33;;;13.50;77.90;;;;;;5044295;28;20029;-83
2021/09/29 06:34:01;;;;;;;3.65;1.00;;;13.40;77.80;;;;;;5044932;28;20092;-83
2021/09/29 06:36:26;;;;;;;1.83;0.88;;;13.40;77.60;;;;;;5038156;28;20099;-83
2021/09/29 06:38:52;;;;;;;3.35;1.25;;;13.30;77.70;;;;;;5038065;28;20113;-81
2021/09/29 06:41:18;;;;;;;2.58;1.40;;;13.40;77.80;;;;;;5037859;28;20033;-88
2021/09/29 06:43:44;;;;;;;4.07;1.20;;;13.40;77.60;;;;;;5036597;28;20025;-87
2021/09/29 06:46:12;;;;;;;2.95;1.00;;;13.50;77.50;;;;;;5037620;28;20032;-87
2021/09/29 06:48:38;;;;;;;1.85;1.00;;;13.50;77.40;;;;;;5037540;28;20025;-88
2021/09/29 06:51:03;;;;;;;1.50;1.05;;;13.60;77.40;;;;;;5037401;28;20034;-89
2021/09/29 06:53:29;;;;;;;5.40;1.95;;;13.80;77.20;;;;;;5036911;28;20495;-89
2021/09/29 06:55:55;;;;;;;2.30;1.60;;;15.10;73.60;;;;;;5037403;28;20446;-84
2021/09/29 06:58:21;;;;;;;2.35;1.50;;;16.40;69.20;;;;;;5036715;28;20057;-81
2021/09/29 07:00:47;;;;;;;2.55;1.00;;;17.50;65.30;;;;;;5037581;28;20017;-83
2021/09/29 07:03:14;;;;;;;3.20;1.10;;;18.30;62.60;;;;;;5037097;28;20057;-80
2021/09/29 07:05:39;;;;;;;3.58;0.85;;;18.90;60.50;;;;;;5037193;28;20480;-81
2021/09/29 07:08:05;;;;;;;3.50;1.30;;;19.40;58.40;;;;;;5044099;28;20055;-81
2021/09/29 07:10:31;;;;;;;3.28;1.17;;;19.30;58.60;;;;;;5057378;28;20025;-81
2021/09/29 07:12:58;;;;;;;4.80;1.58;;;19.20;57.90;;;;;;5053744;28;20034;-90
2021/09/29 07:15:25;;;;;;;3.90;0.93;;;19.50;57.30;;;;;;5035810;28;20051;-85
2021/09/29 07:17:56;;;;;;;2.92;0.88;;;19.80;56.10;;;;;;5037325;28;20064;-83
2021/09/29 07:20:22;;;;;;;2.90;0.85;;;20.00;55.90;;;;;;5036846;28;20021;-88
2021/09/29 07:22:47;;;;;;;1.35;0.80;;;20.00;55.50;;;;;;5037101;28;20029;-88
2021/09/29 07:25:13;;;;;;;2.28;0.75;;;19.40;56.30;;;;;;5068019;28;20013;-88
2021/09/29 07:27:39;;;;;;;2.72;1.05;;;18.40;59.50;;;;;;5066815;28;20111;-84
2021/09/29 07:30:05;;;;;;;4.15;0.70;;;17.50;62.50;;;;;;5056922;28;20037;-81
2021/09/29 07:32:31;;;;;;;2.72;0.90;;;16.70;64.70;;;;;;5056892;28;20560;-83
2021/09/29 07:34:57;;;;;;;2.63;0.90;;;16.20;66.50;;;;;;5049900;28;20042;-90
2021/09/29 07:37:22;;;;;;;2.92;0.68;;;15.80;68.10;;;;;;5035774;28;20033;-89
2021/09/29 07:39:48;;;;;;;5.25;0.90;;;15.70;68.60;;;;;;5036114;28;20365;-91
2021/09/29 07:42:14;;;;;;;2.70;1.30;;;15.60;69.50;;;;;;5036063;28;20060;-90
2021/09/29 07:44:40;;;;;;;3.30;0.82;;;15.70;69.70;;;;;;5048917;28;20046;-88
2021/09/29 07:47:06;;;;;;;2.65;0.80;;;15.60;70.30;;;;;;5036977;28;20549;-88
2021/09/29 07:49:32;;;;;;;4.55;1.10;;;15.40;70.20;;;;;;5036731;28;20796;-85
2021/09/29 07:51:58;;;;;;;2.85;0.88;;;15.40;70.70;;;;;;5036204;28;20061;-85
2021/09/29 07:54:26;;;;;;;5.70;0.95;;;15.30;70.70;;;;;;5036328;28;20029;-87
2021/09/29 07:56:52;;;;;;;1.73;0.75;;;15.30;71.00;;;;;;5036219;28;20376;-88
2021/09/29 07:59:18;;;;;;;4.93;0.77;;;15.30;71.10;;;;;;5051857;28;20531;-86
2021/09/29 08:01:44;;;;;;;1.30;0.70;;;15.30;71.50;;;;;;5050574;28;20906;-87
2021/09/29 08:04:09;;;;;;;5.45;1.20;;;15.30;70.80;;;;;;5036082;28;20045;-87
2021/09/29 08:06:35;;;;;;;4.53;1.00;;;15.30;71.10;;;;;;5036050;28;20079;-87
2021/09/29 08:09:02;;;;;;;3.58;1.08;;;15.40;71.30;;;;;;5035894;28;20026;-85
2021/09/29 08:11:29;;;;;;;5.05;0.93;;;15.40;70.80;;;;;;5050242;28;20032;-87
2021/09/29 08:13:54;;;;;;;4.97;1.42;;;15.50;71.00;;;;;;5051337;28;20025;-86
2021/09/29 08:16:20;;;;;;;3.38;0.70;;;15.50;70.50;;;;;;5035906;28;20040;-87
2021/09/29 08:18:46;;;;;;;4.95;1.02;;;15.60;70.30;;;;;;5034450;28;20029;-86
2021/09/29 08:21:17;;;;;;;3.17;0.98;;;15.50;71.00;;;;;;5035803;28;20060;-87
2021/09/29 08:23:46;;;;;;;5.03;1.58;;;15.60;69.60;;;;;;5041743;28;20063;-85
2021/09/29 08:42:40;;;;;;;7.07;1.25;;;16.10;68.40;;;;;;5046018;28;20029;-86
2021/09/29 08:45:33;;;;;;;3.85;0.63;;;16.20;67.80;;;;;;5035611;28;20022;-86
2021/09/29 08:48:03;;;;;;;1.67;0.70;;;16.30;68.10;;;;;;5035301;28;20398;-86
2021/09/29 08:53:29;;;;;;;3.42;0.80;;;16.30;67.20;;;;;;5055320;28;20037;-85
2021/09/29 09:17:41;;;;;;;2.17;0.70;;;16.60;66.00;;;;;;5035410;28;20033;-84
2021/09/29 09:20:10;;;;;;;8.77;1.10;;;16.60;65.40;;;;;;5037603;28;20399;-85
2021/09/29 09:22:36;;;;;;;8.88;1.30;;;16.70;65.40;;;;;;5057971;28;20053;-86
2021/09/29 09:25:03;;;;;;;5.70;0.90;;;16.80;65.20;;;;;;5067099;28;20391;-86
2021/09/29 09:27:58;;;;;;;2.78;0.70;;;16.90;64.80;;;;;;5039050;28;20051;-86
2021/09/29 09:30:30;;;;;;;4.60;1.00;;;17.10;65.10;;;;;;5040838;28;20045;-85
2021/09/29 09:32:56;;;;;;;6.60;1.00;;;17.20;62.90;;;;;;5046413;28;20033;-86
2021/09/29 09:35:25;;;;;;;5.88;1.00;;;17.40;62.90;;;;;;5057147;28;20056;-86
2021/09/29 09:37:56;;;;;;;7.15;1.27;;;17.60;61.70;;;;;;5039487;28;20120;-86
2021/09/29 09:40:26;;;;;;;4.85;1.30;;;17.70;61.80;;;;;;5038946;28;20029;-86
2021/09/29 09:42:56;;;;;;;4.83;1.00;;;17.70;62.70;;;;;;5037592;28;20071;-86
2021/09/29 09:45:41;;;;;;;3.22;0.90;;;17.60;61.70;;;;;;5049389;28;20275;-86
2021/09/29 09:48:21;;;;;;;2.88;0.77;;;17.70;62.30;;;;;;5058899;28;20104;-84
2021/09/29 09:50:48;;;;;;;5.88;0.82;;;17.70;60.30;;;;;;5038804;28;20089;-86
2021/09/29 09:53:15;;;;;;;3.67;0.73;;;17.70;60.60;;;;;;5039544;28;20052;-85
2021/09/29 09:55:41;;;;;;;4.30;0.90;;;17.70;61.00;;;;;;5037238;28;20071;-84
2021/09/29 09:58:07;;;;;;;4.93;0.90;;;17.70;59.30;;;;;;5037231;28;20025;-77
2021/09/29 10:00:34;;;;;;;3.85;0.73;;;17.80;59.10;;;;;;5038800;28;20033;-85
2021/09/29 10:03:01;;;;;;;7.95;0.90;;;17.70;57.40;;;;;;5038764;28;20069;-84
2021/09/29 10:05:29;;;;;;;8.75;1.10;;;17.70;57.60;;;;;;5038263;28;20495;-85
2021/09/29 10:07:56;;;;;;;5.97;0.98;;;17.70;57.20;;;;;;5038501;28;20108;-85
2021/09/29 10:10:34;;;;;;;4.47;0.85;;;17.80;59.00;;;;;;5038401;28;20083;-85
2021/09/29 10:26:08;;;;;;;2.45;0.60;;;18.10;54.00;;;;;;5066900;28;20626;-85
2021/09/29 10:27:22;;;;;;;2.50;0.70;;;18.10;54.10;;;;;;5050109;28;20065;-85
2021/09/29 10:30:04;;;;;;;3.78;0.95;;;18.20;55.00;;;;;;5038124;28;20033;-85
2021/09/29 10:32:46;;;;;;;2.72;0.85;;;18.40;54.70;;;;;;5037444;28;20037;-85
2021/09/29 10:43:06;;;;;;;;;;;18.90;54.70;;;;;;5055521;28;20479;-85
2021/09/29 10:45:57;;;;;;;3.40;0.73;;;18.90;55.60;;;;;;5057822;28;19944;-86
2021/09/29 11:30:27;;;;;;;5.47;0.77;;;19.00;51.90;;;;;;5062409;28;20030;-86
2021/09/29 11:33:00;;;;;;;4.07;0.63;;;19.10;52.00;;;;;;5037214;28;20029;-85
2021/09/29 11:38:26;;;;;;;5.43;1.00;;;19.10;49.90;;;;;;5044636;28;20036;-86
2021/09/29 12:08:51;;;;;;;2.88;0.45;;;19.30;49.00;;;;;;5045780;28;20051;-83
2021/09/29 12:11:39;;;;;;;2.92;0.47;;;19.50;48.60;;;;;;5051609;28;20025;-82
2021/09/29 12:14:15;;;;;;;1.45;0.40;;;19.50;48.30;;;;;;5039425;28;20099;-83
2021/09/29 12:16:42;;;;;;;2.47;0.50;;;19.70;48.40;;;;;;5045195;28;20025;-82
2021/09/29 12:19:21;;;;;;;1.25;0.50;;;19.70;47.00;;;;;;5058329;28;20017;-82
2021/09/29 12:21:52;;;;;;;3.03;0.80;;;19.70;46.80;;;;;;5048588;28;20021;-84
2021/09/29 12:24:31;;;;;;;3.42;0.60;;;19.80;48.10;;;;;;5062750;28;20042;-82
2021/09/29 12:26:59;;;;;;;3.05;0.43;;;19.70;45.70;;;;;;5037447;28;20496;-82
2021/09/29 12:29:33;;;;;;;2.08;0.52;;;19.70;45.40;;;;;;5040829;28;20063;-81
2021/09/29 12:37:51;;;;;;;3.55;0.65;;;19.50;45.70;;;;;;5040972;28;20036;-81
2021/09/29 12:40:17;;;;;;;0.95;0.45;;;19.50;45.80;;;;;;5055481;28;20109;-82
2021/09/29 12:42:43;;;;;;;4.78;0.60;;;19.60;45.80;;;;;;5055215;28;20095;-82
2021/09/29 12:45:09;;;;;;;4.05;0.50;;;19.70;45.00;;;;;;5055335;28;20032;-81
2021/09/29 12:47:38;;;;;;;3.05;0.57;;;19.70;43.60;;;;;;5037382;28;20132;-81
2021/09/29 12:50:12;;;;;;;3.10;0.93;;;19.80;45.00;;;;;;5035314;28;20025;-81
2021/09/29 12:52:47;;;;;;;1.70;0.47;;;19.90;44.50;;;;;;5039312;28;20022;-80
2021/09/29 12:55:19;;;;;;;2.40;0.40;;;20.20;44.00;;;;;;5040969;28;20079;-81
2021/09/29 12:57:45;;;;;;;4.13;0.90;;;20.30;42.90;;;;;;5034937;28;20030;-80
2021/09/29 13:00:13;;;;;;;4.93;0.57;;;20.40;41.30;;;;;;5035148;28;20048;-80
2021/09/29 13:02:39;;;;;;;1.30;0.50;;;20.30;42.70;;;;;;5033959;28;20021;-81
2021/09/29 13:05:05;;;;;;;4.22;2.22;;;20.10;43.50;;;;;;5035577;28;20044;-81
2021/09/29 13:07:31;;;;;;;2.03;1.17;;;19.90;43.60;;;;;;5046494;28;20029;-81
2021/09/29 13:09:56;;;;;;;7.20;1.35;;;19.90;45.20;;;;;;5036150;28;20033;-80
2021/09/29 13:12:22;;;;;;;3.95;0.77;;;19.90;44.00;;;;;;5046191;28;20032;-80
2021/09/29 13:14:48;;;;;;;16.08;1.25;;;19.80;43.50;;;;;;5050455;28;20036;-81
2021/09/29 13:17:13;;;;;;;2.85;0.40;;;19.80;43.30;;;;;;5035014;28;20062;-81
2021/09/29 13:19:48;;;;;;;2.90;0.63;;;19.70;43.70;;;;;;5042210;28;20046;-81
2021/09/29 13:22:22;;;;;;;4.32;0.70;;;19.80;45.30;;;;;;5035791;28;20017;-80
2021/09/29 13:38:46;;;;;;;6.03;0.70;;;19.70;46.20;;;;;;5036369;28;20041;-81
2021/09/29 13:41:12;;;;;;;3.42;0.73;;;19.70;46.10;;;;;;5040570;28;20030;-81
2021/09/29 13:43:38;;;;;;;2.28;0.57;;;19.80;47.20;;;;;;5040018;28;20026;-81
2021/09/29 13:46:05;;;;;;;3.17;0.50;;;19.80;46.50;;;;;;5032461;28;20029;-82
2021/09/29 13:48:30;;;;;;;3.28;0.73;;;19.90;45.80;;;;;;5032825;28;20036;-82
2021/09/29 13:50:56;;;;;;;5.78;1.10;;;19.90;45.00;;;;;;5034369;28;20029;-81
2021/09/29 13:53:24;;;;;;;2.30;0.55;;;19.80;43.30;;;;;;5034623;28;20026;-82
2021/09/29 13:55:50;;;;;;;2.55;0.70;;;19.60;43.50;;;;;;5034606;28;20025;-82
2021/09/29 14:30:23;;;;;;;1.90;0.50;;;19.50;40.50;;;;;;5057812;28;20036;-81
2021/09/29 14:35:50;;;;;;;0.57;0.30;;;19.50;39.70;;;;;;5054991;28;20061;-80
2021/09/29 14:38:16;;;;;;;1.80;0.50;;;19.50;39.40;;;;;;5036390;28;20067;-81
2021/09/29 14:40:42;;;;;;;2.95;0.50;;;19.60;40.40;;;;;;5038050;28;20030;-81
2021/09/29 14:43:07;;;;;;;2.30;0.50;;;19.60;40.00;;;;;;5040262;28;20369;-81
2021/09/29 14:45:35;;;;;;;8.20;0.68;;;19.70;40.20;;;;;;5037677;28;20049;-80
2021/09/29 14:48:01;;;;;;;2.00;0.55;;;19.60;39.70;;;;;;5037465;28;20025;-81
2021/09/29 14:50:27;;;;;;;1.67;0.40;;;19.60;41.10;;;;;;5037347;28;20041;-81
2021/09/29 14:52:58;;;;;;;1.20;0.68;;;19.40;41.80;;;;;;5036920;28;20021;-80
2021/09/29 14:55:30;;;;;;;1.33;0.50;;;19.10;41.60;;;;;;5037361;28;20519;-81
2021/09/29 14:57:57;;;;;;;1.42;0.45;;;19.10;42.00;;;;;;5037316;28;20436;-80
2021/09/29 15:00:26;;;;;;;0.40;0.20;;;19.10;41.70;;;;;;5037233;28;20510;-81
2021/09/29 15:02:51;;;;;;;4.35;0.80;;;19.20;41.60;;;;;;5037079;28;20029;-81
2021/09/29 15:05:17;;;;;;;1.45;0.43;;;19.10;40.40;;;;;;5036749;28;20037;-81
2021/09/29 15:07:43;;;;;;;1.75;0.60;;;19.20;40.20;;;;;;5037359;28;20041;-81
2021/09/29 15:10:08;;;;;;;2.10;0.50;;;19.20;41.00;;;;;;5036896;28;20388;-81
2021/09/29 15:12:35;;;;;;;3.63;0.50;;;19.20;41.40;;;;;;5037099;28;20396;-81
2021/09/29 15:15:14;;;;;;;4.05;0.63;;;19.20;41.80;;;;;;5037078;28;20559;-81
2021/09/29 15:17:45;;;;;;;1.60;0.50;;;19.20;41.60;;;;;;5036723;28;20511;-81
2021/09/29 15:22:53;;;;;;;5.23;0.70;;;19.20;42.40;;;;;;5037106;28;20088;-83
2021/09/29 15:25:45;;;;;;;1.77;0.50;;;19.20;41.90;;;;;;5036904;28;20283;-79
2021/09/29 15:47:05;;;;;;;4.68;0.70;;;18.80;43.30;;;;;;5041886;28;20083;-81
2021/09/29 16:00:17;;;;;;;2.75;0.70;;;18.60;44.50;;;;;;5042871;28;20034;-78
2021/09/29 16:16:22;;;;;;;1.77;0.70;;;18.40;44.90;;;;;;5055232;28;20183;-78
2021/09/29 16:18:56;;;;;;;3.67;0.65;;;18.30;44.80;;;;;;5049027;28;20166;-81
2021/09/29 16:32:21;;;;;;;3.70;0.65;;;18.00;45.70;;;;;;5043855;28;20490;-81
2021/09/29 16:34:59;;;;;;;5.82;0.68;;;18.00;46.30;;;;;;5041228;28;20447;-81
2021/09/29 16:37:25;;;;;;;4.20;0.70;;;18.00;46.10;;;;;;5040310;28;20033;-82
2021/09/29 16:39:51;;;;;;;4.07;0.60;;;17.80;45.70;;;;;;5047688;28;20032;-82
2021/09/29 16:42:18;;;;;;;3.78;0.73;;;17.80;46.20;;;;;;5048189;28;20025;-82
2021/09/29 16:44:44;;;;;;;3.72;0.75;;;17.80;46.50;;;;;;5039420;28;20084;-82
2021/09/29 16:47:09;;;;;;;3.90;0.77;;;17.80;46.90;;;;;;5043459;28;20069;-81
2021/09/29 16:49:37;;;;;;;4.30;0.75;;;17.70;47.00;;;;;;5047752;28;20029;-81
2021/09/29 16:54:50;;;;;;;4.18;0.52;;;17.60;48.50;;;;;;5037201;28;20112;-82
2021/09/29 16:57:20;;;;;;;2.53;0.52;;;17.50;46.90;;;;;;5051942;28;20029;-81
2021/09/29 17:00:01;;;;;;;1.87;0.50;;;17.40;47.70;;;;;;5052676;28;20029;-81